Orbital elements of KORONAS-FOTON
| Launched | 29 January 2009 |
| Flight ended | – |
| Launch site | Plesetsk Missile and Space Complex, Russia |
| Owner | Commonwealth of Independent States (former USSR) |
| NORAD ID | 33504 |
| Date fetched |
Epoch osculation |
Inc. [°] |
Ecc. | RA asc node [hr] |
Arg Peri. [°] |
Mean anom [°] |
Mean motion [rev/day] |
Abs. mag |
| Date fetched |
Epoch osculation |
Inc. [°] |
Ecc. | RA asc node [hr] |
Arg Peri. [°] |
Mean anom [°] |
Mean motion [rev/day] |
Abs. mag |
| 2026 May 05 17:57 | 2026 May 05 12:48:08 | 82.4310 | 0.00091 | 14.4478 | 313.1134 | 46.9348 | 15.44838 | 6.000 |
| 2026 May 04 17:57 | 2026 May 04 07:15:54 | 82.4315 | 0.00092 | 14.5332 | 318.1673 | 46.9348 | 15.44838 | 6.000 |
| 2026 May 03 17:57 | 2026 May 03 12:36:35 | 82.4319 | 0.00092 | 14.5872 | 321.4345 | 46.9348 | 15.44838 | 6.000 |
| 2026 May 02 17:57 | 2026 May 02 07:04:18 | 82.4321 | 0.00093 | 14.6727 | 326.1767 | 46.9348 | 15.44838 | 6.000 |
| 2026 May 01 17:56 | 2026 May 01 07:45:06 | 82.4319 | 0.00094 | 14.7401 | 330.1503 | 46.9348 | 15.44838 | 6.000 |
| 2026 Apr 30 17:56 | 2026 Apr 30 13:05:43 | 82.4318 | 0.00094 | 14.7941 | 333.2194 | 46.9348 | 15.44838 | 6.000 |
| 2026 Apr 29 17:57 | 2026 Apr 29 06:00:03 | 82.4316 | 0.00095 | 14.8840 | 338.0776 | 46.9348 | 15.44838 | 6.000 |
| 2026 Apr 28 17:56 | 2026 Apr 28 12:53:55 | 82.4316 | 0.00096 | 14.9335 | 340.9986 | 46.9348 | 15.44838 | 6.000 |
| 2026 Apr 27 17:58 | 2026 Apr 27 08:54:46 | 82.4313 | 0.00097 | 15.0144 | 345.4830 | 46.9348 | 15.44838 | 6.000 |
| 2026 Apr 26 17:58 | 2026 Apr 26 08:02:09 | 82.4314 | 0.00097 | 15.0864 | 349.3544 | 46.9348 | 15.44838 | 6.000 |
| 2026 Apr 25 17:58 | 2026 Apr 25 08:42:47 | 82.4310 | 0.00098 | 15.1538 | 353.2087 | 46.9348 | 15.44838 | 6.000 |
| 2026 Apr 24 17:59 | 2026 Apr 24 07:50:07 | 82.4309 | 0.00099 | 15.2258 | 357.1348 | 46.9348 | 15.44838 | 6.000 |
| 2026 Apr 23 17:57 | 2026 Apr 23 06:57:24 | 82.4309 | 0.00100 | 15.2977 | 0.9246 | 46.9348 | 15.44838 | 6.000 |
| 2026 Apr 22 17:57 | 2026 Apr 22 07:37:59 | 82.4309 | 0.00101 | 15.3652 | 4.4124 | 46.9348 | 15.44838 | 6.000 |
| 2026 Apr 21 17:57 | 2026 Apr 21 09:51:50 | 82.4309 | 0.00102 | 15.4281 | 7.5889 | 46.9348 | 15.44838 | 6.000 |
| 2026 Apr 20 17:57 | 2026 Apr 20 08:59:04 | 82.4310 | 0.00103 | 15.5000 | 11.4264 | 46.9348 | 15.44838 | 6.000 |
| 2026 Apr 19 17:58 | 2026 Apr 19 08:06:17 | 82.4307 | 0.00104 | 15.5720 | 15.1121 | 46.9348 | 15.44838 | 6.000 |
| 2026 Apr 18 17:56 | 2026 Apr 18 07:13:29 | 82.4306 | 0.00105 | 15.6439 | 18.6461 | 46.9348 | 15.44838 | 6.000 |
| 2026 Apr 16 17:57 | 2026 Apr 15 18:34:41 | 82.4296 | 0.00107 | 15.8193 | 27.4714 | 46.9348 | 15.44838 | 6.000 |
| 2026 Apr 14 17:57 | 2026 Apr 14 09:55:18 | 82.4291 | 0.00108 | 15.9138 | 32.2425 | 46.9348 | 15.44838 | 6.000 |
| 2026 Apr 13 17:57 | 2026 Apr 13 02:49:12 | 82.4290 | 0.00109 | 16.0037 | 36.6072 | 46.9348 | 15.44838 | 6.000 |
| 2026 Apr 12 17:57 | 2026 Apr 12 09:42:50 | 82.4290 | 0.00110 | 16.0532 | 39.0333 | 46.9348 | 15.44838 | 6.000 |
| 2026 Apr 11 17:57 | 2026 Apr 11 10:23:14 | 82.4292 | 0.00110 | 16.1207 | 42.2888 | 46.9348 | 15.44838 | 6.000 |
| 2026 Apr 10 17:58 | 2026 Apr 10 03:17:03 | 82.4294 | 0.00111 | 16.2106 | 46.7665 | 46.9348 | 15.44838 | 6.000 |
| 2026 Apr 09 18:01 | 2026 Apr 08 21:44:09 | 82.4293 | 0.00112 | 16.2960 | 50.8995 | 46.9348 | 15.44838 | 6.000 |
| 2026 Apr 08 17:57 | 2026 Apr 08 03:04:24 | 82.4294 | 0.00112 | 16.3500 | 53.3539 | 46.9348 | 15.44838 | 6.000 |